sensor_id;sensor_type;location;lat;lon;timestamp;P1;durP1;ratioP1;P2;durP2;ratioP2
18711;SDS011;9485;49.386;8.674;2022-10-15T00:03:00;0.67;;;0.67;;
18711;SDS011;9485;49.386;8.674;2022-10-15T00:08:21;0.80;;;0.80;;
18711;SDS011;9485;49.386;8.674;2022-10-15T00:13:42;0.60;;;0.60;;
18711;SDS011;9485;49.386;8.674;2022-10-15T00:19:04;0.60;;;0.60;;
18711;SDS011;9485;49.386;8.674;2022-10-15T00:24:25;0.70;;;0.70;;
18711;SDS011;9485;49.386;8.674;2022-10-15T00:29:45;1.90;;;0.70;;
18711;SDS011;9485;49.386;8.674;2022-10-15T00:35:08;0.97;;;0.73;;
18711;SDS011;9485;49.386;8.674;2022-10-15T00:40:29;1.10;;;0.90;;
18711;SDS011;9485;49.386;8.674;2022-10-15T00:45:50;1.20;;;0.90;;
18711;SDS011;9485;49.386;8.674;2022-10-15T00:51:12;1.43;;;0.70;;
18711;SDS011;9485;49.386;8.674;2022-10-15T00:56:37;0.77;;;0.70;;
18711;SDS011;9485;49.386;8.674;2022-10-15T01:02:02;0.70;;;0.70;;
18711;SDS011;9485;49.386;8.674;2022-10-15T01:07:25;0.87;;;0.60;;
18711;SDS011;9485;49.386;8.674;2022-10-15T01:12:54;0.80;;;0.80;;
18711;SDS011;9485;49.386;8.674;2022-10-15T01:18:23;0.67;;;0.67;;
18711;SDS011;9485;49.386;8.674;2022-10-15T01:24:01;1.43;;;0.70;;
18711;SDS011;9485;49.386;8.674;2022-10-15T01:35:47;1.17;;;0.60;;
18711;SDS011;9485;49.386;8.674;2022-10-15T01:41:13;0.90;;;0.70;;
18711;SDS011;9485;49.386;8.674;2022-10-15T01:46:44;1.37;;;0.87;;
18711;SDS011;9485;49.386;8.674;2022-10-15T01:52:13;0.47;;;0.47;;
18711;SDS011;9485;49.386;8.674;2022-10-15T01:57:42;0.60;;;0.60;;
18711;SDS011;9485;49.386;8.674;2022-10-15T02:03:07;0.50;;;0.50;;
18711;SDS011;9485;49.386;8.674;2022-10-15T02:08:31;1.13;;;0.40;;
18711;SDS011;9485;49.386;8.674;2022-10-15T02:14:06;0.53;;;0.53;;
18711;SDS011;9485;49.386;8.674;2022-10-15T02:19:37;0.73;;;0.50;;
18711;SDS011;9485;49.386;8.674;2022-10-15T02:25:08;0.30;;;0.30;;
18711;SDS011;9485;49.386;8.674;2022-10-15T02:30:34;1.40;;;0.60;;
18711;SDS011;9485;49.386;8.674;2022-10-15T02:36:04;0.60;;;0.60;;
18711;SDS011;9485;49.386;8.674;2022-10-15T02:41:27;0.70;;;0.63;;
18711;SDS011;9485;49.386;8.674;2022-10-15T02:46:49;0.67;;;0.57;;
18711;SDS011;9485;49.386;8.674;2022-10-15T02:52:13;0.63;;;0.63;;
18711;SDS011;9485;49.386;8.674;2022-10-15T02:57:33;0.97;;;0.60;;
18711;SDS011;9485;49.386;8.674;2022-10-15T03:02:55;0.67;;;0.60;;
18711;SDS011;9485;49.386;8.674;2022-10-15T03:08:18;0.53;;;0.53;;
18711;SDS011;9485;49.386;8.674;2022-10-15T03:13:39;0.60;;;0.60;;
18711;SDS011;9485;49.386;8.674;2022-10-15T03:19:00;0.50;;;0.50;;
18711;SDS011;9485;49.386;8.674;2022-10-15T03:24:22;0.60;;;0.60;;
18711;SDS011;9485;49.386;8.674;2022-10-15T03:29:42;0.50;;;0.50;;
18711;SDS011;9485;49.386;8.674;2022-10-15T03:35:04;1.03;;;0.50;;
18711;SDS011;9485;49.386;8.674;2022-10-15T03:40:28;0.77;;;0.60;;
18711;SDS011;9485;49.386;8.674;2022-10-15T03:46:00;0.30;;;0.30;;
18711;SDS011;9485;49.386;8.674;2022-10-15T03:51:22;1.60;;;0.50;;
18711;SDS011;9485;49.386;8.674;2022-10-15T03:56:48;0.60;;;0.40;;
18711;SDS011;9485;49.386;8.674;2022-10-15T04:02:19;0.40;;;0.40;;
18711;SDS011;9485;49.386;8.674;2022-10-15T04:07:40;0.57;;;0.57;;
18711;SDS011;9485;49.386;8.674;2022-10-15T04:13:07;1.03;;;0.50;;
18711;SDS011;9485;49.386;8.674;2022-10-15T04:18:29;0.50;;;0.50;;
18711;SDS011;9485;49.386;8.674;2022-10-15T04:23:50;0.80;;;0.50;;
18711;SDS011;9485;49.386;8.674;2022-10-15T04:29:19;0.70;;;0.60;;
18711;SDS011;9485;49.386;8.674;2022-10-15T04:34:41;0.93;;;0.60;;
18711;SDS011;9485;49.386;8.674;2022-10-15T04:40:04;0.87;;;0.57;;
18711;SDS011;9485;49.386;8.674;2022-10-15T04:45:28;0.50;;;0.50;;
18711;SDS011;9485;49.386;8.674;2022-10-15T04:50:49;1.13;;;0.60;;
18711;SDS011;9485;49.386;8.674;2022-10-15T04:56:13;0.70;;;0.70;;
18711;SDS011;9485;49.386;8.674;2022-10-15T05:01:39;0.70;;;0.70;;
18711;SDS011;9485;49.386;8.674;2022-10-15T05:07:03;0.70;;;0.70;;
18711;SDS011;9485;49.386;8.674;2022-10-15T05:12:24;0.77;;;0.70;;
18711;SDS011;9485;49.386;8.674;2022-10-15T05:17:47;0.50;;;0.50;;
18711;SDS011;9485;49.386;8.674;2022-10-15T05:23:09;0.50;;;0.50;;
18711;SDS011;9485;49.386;8.674;2022-10-15T05:28:30;0.50;;;0.50;;
18711;SDS011;9485;49.386;8.674;2022-10-15T05:33:52;0.40;;;0.40;;
18711;SDS011;9485;49.386;8.674;2022-10-15T05:39:22;1.07;;;0.50;;
18711;SDS011;9485;49.386;8.674;2022-10-15T05:44:45;0.40;;;0.40;;
18711;SDS011;9485;49.386;8.674;2022-10-15T05:50:07;0.80;;;0.60;;
18711;SDS011;9485;49.386;8.674;2022-10-15T05:55:33;1.10;;;0.80;;
18711;SDS011;9485;49.386;8.674;2022-10-15T06:00:54;1.20;;;1.20;;
18711;SDS011;9485;49.386;8.674;2022-10-15T06:06:18;2.07;;;0.90;;
18711;SDS011;9485;49.386;8.674;2022-10-15T06:11:40;1.20;;;1.10;;
18711;SDS011;9485;49.386;8.674;2022-10-15T06:17:02;1.33;;;1.13;;
18711;SDS011;9485;49.386;8.674;2022-10-15T06:22:24;1.20;;;1.13;;
18711;SDS011;9485;49.386;8.674;2022-10-15T06:27:45;1.23;;;1.10;;
18711;SDS011;9485;49.386;8.674;2022-10-15T06:33:05;1.80;;;1.07;;
18711;SDS011;9485;49.386;8.674;2022-10-15T06:38:27;1.30;;;1.00;;
18711;SDS011;9485;49.386;8.674;2022-10-15T06:43:48;1.90;;;1.10;;
18711;SDS011;9485;49.386;8.674;2022-10-15T06:49:09;1.47;;;1.13;;
18711;SDS011;9485;49.386;8.674;2022-10-15T06:54:36;1.00;;;1.00;;
18711;SDS011;9485;49.386;8.674;2022-10-15T06:59:57;1.00;;;0.90;;
18711;SDS011;9485;49.386;8.674;2022-10-15T07:05:19;1.00;;;0.90;;
18711;SDS011;9485;49.386;8.674;2022-10-15T07:10:41;0.90;;;0.90;;
18711;SDS011;9485;49.386;8.674;2022-10-15T07:16:02;1.13;;;1.03;;
18711;SDS011;9485;49.386;8.674;2022-10-15T07:21:25;0.90;;;0.83;;
18711;SDS011;9485;49.386;8.674;2022-10-15T07:26:47;1.10;;;1.00;;
18711;SDS011;9485;49.386;8.674;2022-10-15T07:32:08;2.00;;;1.33;;
18711;SDS011;9485;49.386;8.674;2022-10-15T07:37:29;1.80;;;0.77;;
18711;SDS011;9485;49.386;8.674;2022-10-15T07:42:52;0.97;;;0.97;;
18711;SDS011;9485;49.386;8.674;2022-10-15T07:48:15;1.30;;;1.20;;
18711;SDS011;9485;49.386;8.674;2022-10-15T07:53:35;1.90;;;1.60;;
18711;SDS011;9485;49.386;8.674;2022-10-15T07:58:58;3.43;;;1.90;;
18711;SDS011;9485;49.386;8.674;2022-10-15T08:04:18;1.77;;;1.20;;
18711;SDS011;9485;49.386;8.674;2022-10-15T08:09:41;1.30;;;1.20;;
18711;SDS011;9485;49.386;8.674;2022-10-15T08:15:04;1.27;;;1.00;;
18711;SDS011;9485;49.386;8.674;2022-10-15T08:20:26;1.30;;;1.00;;
18711;SDS011;9485;49.386;8.674;2022-10-15T08:25:47;0.90;;;0.90;;
18711;SDS011;9485;49.386;8.674;2022-10-15T08:31:12;1.53;;;1.10;;
18711;SDS011;9485;49.386;8.674;2022-10-15T08:36:32;1.33;;;1.00;;
18711;SDS011;9485;49.386;8.674;2022-10-15T08:41:53;1.97;;;1.30;;
18711;SDS011;9485;49.386;8.674;2022-10-15T08:47:25;1.10;;;1.00;;
18711;SDS011;9485;49.386;8.674;2022-10-15T08:52:51;2.07;;;1.13;;
18711;SDS011;9485;49.386;8.674;2022-10-15T08:58:18;1.40;;;1.03;;
18711;SDS011;9485;49.386;8.674;2022-10-15T09:03:48;1.10;;;1.00;;
18711;SDS011;9485;49.386;8.674;2022-10-15T09:09:21;2.47;;;1.40;;
18711;SDS011;9485;49.386;8.674;2022-10-15T09:14:51;1.80;;;1.30;;
18711;SDS011;9485;49.386;8.674;2022-10-15T09:20:18;1.50;;;1.20;;
18711;SDS011;9485;49.386;8.674;2022-10-15T09:25:48;2.20;;;1.60;;
18711;SDS011;9485;49.386;8.674;2022-10-15T09:31:20;1.67;;;1.47;;
18711;SDS011;9485;49.386;8.674;2022-10-15T09:36:50;1.60;;;1.50;;
18711;SDS011;9485;49.386;8.674;2022-10-15T09:42:20;1.30;;;1.20;;
18711;SDS011;9485;49.386;8.674;2022-10-15T09:47:48;1.40;;;1.17;;
18711;SDS011;9485;49.386;8.674;2022-10-15T09:53:13;1.00;;;1.00;;
18711;SDS011;9485;49.386;8.674;2022-10-15T09:58:48;1.10;;;0.97;;
18711;SDS011;9485;49.386;8.674;2022-10-15T10:04:13;0.87;;;0.87;;
18711;SDS011;9485;49.386;8.674;2022-10-15T10:09:47;1.20;;;1.10;;
18711;SDS011;9485;49.386;8.674;2022-10-15T10:15:25;1.17;;;1.07;;
18711;SDS011;9485;49.386;8.674;2022-10-15T10:20:56;0.90;;;0.90;;
18711;SDS011;9485;49.386;8.674;2022-10-15T10:26:46;1.50;;;0.73;;
18711;SDS011;9485;49.386;8.674;2022-10-15T10:32:08;0.80;;;0.80;;
18711;SDS011;9485;49.386;8.674;2022-10-15T10:37:39;2.50;;;1.60;;
18711;SDS011;9485;49.386;8.674;2022-10-15T10:43:15;2.00;;;0.70;;
18711;SDS011;9485;49.386;8.674;2022-10-15T10:49:08;1.97;;;0.60;;
18711;SDS011;9485;49.386;8.674;2022-10-15T10:54:29;1.17;;;0.90;;
18711;SDS011;9485;49.386;8.674;2022-10-15T10:59:53;0.70;;;0.70;;
18711;SDS011;9485;49.386;8.674;2022-10-15T11:05:16;1.42;;;1.10;;
18711;SDS011;9485;49.386;8.674;2022-10-15T11:10:46;1.03;;;0.80;;
18711;SDS011;9485;49.386;8.674;2022-10-15T11:16:20;2.53;;;1.67;;
18711;SDS011;9485;49.386;8.674;2022-10-15T11:22:02;1.27;;;1.10;;
18711;SDS011;9485;49.386;8.674;2022-10-15T11:27:50;1.95;;;1.58;;
18711;SDS011;9485;49.386;8.674;2022-10-15T11:33:34;1.00;;;0.90;;
18711;SDS011;9485;49.386;8.674;2022-10-15T11:39:14;1.35;;;0.88;;
18711;SDS011;9485;49.386;8.674;2022-10-15T11:45:17;1.67;;;0.80;;
18711;SDS011;9485;49.386;8.674;2022-10-15T11:51:09;21.38;;;2.08;;
18711;SDS011;9485;49.386;8.674;2022-10-15T11:56:44;0.77;;;0.77;;
18711;SDS011;9485;49.386;8.674;2022-10-15T12:02:09;2.57;;;0.70;;
18711;SDS011;9485;49.386;8.674;2022-10-15T12:07:38;0.77;;;0.73;;
18711;SDS011;9485;49.386;8.674;2022-10-15T12:13:05;0.80;;;0.80;;
18711;SDS011;9485;49.386;8.674;2022-10-15T12:18:35;0.80;;;0.80;;
18711;SDS011;9485;49.386;8.674;2022-10-15T12:24:47;0.80;;;0.80;;
18711;SDS011;9485;49.386;8.674;2022-10-15T12:30:12;0.80;;;0.60;;
18711;SDS011;9485;49.386;8.674;2022-10-15T12:35:51;2.20;;;0.70;;
18711;SDS011;9485;49.386;8.674;2022-10-15T12:41:15;2.43;;;1.20;;
18711;SDS011;9485;49.386;8.674;2022-10-15T12:46:37;1.90;;;0.90;;
18711;SDS011;9485;49.386;8.674;2022-10-15T12:51:59;3.13;;;0.93;;
18711;SDS011;9485;49.386;8.674;2022-10-15T13:03:15;0.70;;;0.67;;
18711;SDS011;9485;49.386;8.674;2022-10-15T13:08:53;1.20;;;1.03;;
18711;SDS011;9485;49.386;8.674;2022-10-15T13:14:37;2.20;;;1.10;;
18711;SDS011;9485;49.386;8.674;2022-10-15T13:20:02;1.40;;;1.30;;
18711;SDS011;9485;49.386;8.674;2022-10-15T13:25:26;1.08;;;0.90;;
18711;SDS011;9485;49.386;8.674;2022-10-15T13:30:48;0.80;;;0.80;;
18711;SDS011;9485;49.386;8.674;2022-10-15T13:36:14;1.03;;;0.77;;
18711;SDS011;9485;49.386;8.674;2022-10-15T13:41:41;0.87;;;0.70;;
18711;SDS011;9485;49.386;8.674;2022-10-15T13:47:11;1.27;;;1.00;;
18711;SDS011;9485;49.386;8.674;2022-10-15T13:52:46;1.00;;;0.90;;
18711;SDS011;9485;49.386;8.674;2022-10-15T13:58:16;1.60;;;0.77;;
18711;SDS011;9485;49.386;8.674;2022-10-15T14:03:46;1.30;;;0.90;;
18711;SDS011;9485;49.386;8.674;2022-10-15T14:09:10;1.73;;;1.00;;
18711;SDS011;9485;49.386;8.674;2022-10-15T14:14:38;1.10;;;0.93;;
18711;SDS011;9485;49.386;8.674;2022-10-15T14:20:09;0.83;;;0.80;;
18711;SDS011;9485;49.386;8.674;2022-10-15T14:25:40;1.27;;;0.77;;
18711;SDS011;9485;49.386;8.674;2022-10-15T14:31:02;2.17;;;1.30;;
18711;SDS011;9485;49.386;8.674;2022-10-15T14:36:29;1.73;;;0.90;;
18711;SDS011;9485;49.386;8.674;2022-10-15T14:42:00;1.48;;;0.70;;
18711;SDS011;9485;49.386;8.674;2022-10-15T14:47:24;1.25;;;0.70;;
18711;SDS011;9485;49.386;8.674;2022-10-15T14:52:49;1.47;;;0.80;;
18711;SDS011;9485;49.386;8.674;2022-10-15T14:58:15;1.40;;;1.17;;
18711;SDS011;9485;49.386;8.674;2022-10-15T15:03:41;1.10;;;1.00;;
18711;SDS011;9485;49.386;8.674;2022-10-15T15:09:11;0.80;;;0.70;;
18711;SDS011;9485;49.386;8.674;2022-10-15T15:14:34;1.20;;;1.10;;
18711;SDS011;9485;49.386;8.674;2022-10-15T15:19:56;1.60;;;0.83;;
18711;SDS011;9485;49.386;8.674;2022-10-15T15:25:18;1.47;;;1.37;;
18711;SDS011;9485;49.386;8.674;2022-10-15T15:30:46;2.03;;;1.30;;
18711;SDS011;9485;49.386;8.674;2022-10-15T15:36:16;1.53;;;1.30;;
18711;SDS011;9485;49.386;8.674;2022-10-15T15:41:39;2.30;;;1.13;;
18711;SDS011;9485;49.386;8.674;2022-10-15T15:46:59;1.13;;;1.03;;
18711;SDS011;9485;49.386;8.674;2022-10-15T15:52:20;0.90;;;0.90;;
18711;SDS011;9485;49.386;8.674;2022-10-15T15:57:42;1.37;;;1.27;;
18711;SDS011;9485;49.386;8.674;2022-10-15T16:03:04;1.03;;;0.93;;
18711;SDS011;9485;49.386;8.674;2022-10-15T16:08:26;1.73;;;1.00;;
18711;SDS011;9485;49.386;8.674;2022-10-15T16:13:48;1.88;;;1.20;;
18711;SDS011;9485;49.386;8.674;2022-10-15T16:19:09;1.53;;;1.37;;
18711;SDS011;9485;49.386;8.674;2022-10-15T16:24:30;1.40;;;1.30;;
18711;SDS011;9485;49.386;8.674;2022-10-15T16:29:54;3.17;;;1.27;;
18711;SDS011;9485;49.386;8.674;2022-10-15T16:35:15;1.30;;;1.00;;
18711;SDS011;9485;49.386;8.674;2022-10-15T16:40:37;0.90;;;0.90;;
18711;SDS011;9485;49.386;8.674;2022-10-15T16:45:59;1.07;;;0.97;;
18711;SDS011;9485;49.386;8.674;2022-10-15T16:51:20;0.80;;;0.80;;
18711;SDS011;9485;49.386;8.674;2022-10-15T16:56:42;1.10;;;1.00;;
18711;SDS011;9485;49.386;8.674;2022-10-15T17:02:05;1.70;;;1.10;;
18711;SDS011;9485;49.386;8.674;2022-10-15T17:07:25;0.83;;;0.83;;
18711;SDS011;9485;49.386;8.674;2022-10-15T17:12:46;1.10;;;1.00;;
18711;SDS011;9485;49.386;8.674;2022-10-15T17:18:08;2.07;;;1.13;;
18711;SDS011;9485;49.386;8.674;2022-10-15T17:23:29;0.80;;;0.80;;
18711;SDS011;9485;49.386;8.674;2022-10-15T17:28:50;1.73;;;1.20;;
18711;SDS011;9485;49.386;8.674;2022-10-15T17:34:13;1.03;;;1.00;;
18711;SDS011;9485;49.386;8.674;2022-10-15T17:39:34;1.37;;;1.20;;
18711;SDS011;9485;49.386;8.674;2022-10-15T17:44:55;0.90;;;0.90;;
18711;SDS011;9485;49.386;8.674;2022-10-15T17:50:17;0.80;;;0.80;;
18711;SDS011;9485;49.386;8.674;2022-10-15T17:55:37;1.43;;;0.90;;
18711;SDS011;9485;49.386;8.674;2022-10-15T18:00:58;0.80;;;0.80;;
18711;SDS011;9485;49.386;8.674;2022-10-15T18:06:21;0.70;;;0.70;;
18711;SDS011;9485;49.386;8.674;2022-10-15T18:11:43;0.82;;;0.82;;
18711;SDS011;9485;49.386;8.674;2022-10-15T18:17:04;1.93;;;1.00;;
18711;SDS011;9485;49.386;8.674;2022-10-15T18:22:26;1.87;;;0.87;;
18711;SDS011;9485;49.386;8.674;2022-10-15T18:27:47;2.37;;;1.30;;
18711;SDS011;9485;49.386;8.674;2022-10-15T18:33:09;1.03;;;0.90;;
18711;SDS011;9485;49.386;8.674;2022-10-15T18:38:31;1.00;;;0.90;;
18711;SDS011;9485;49.386;8.674;2022-10-15T18:43:53;1.00;;;0.90;;
18711;SDS011;9485;49.386;8.674;2022-10-15T18:49:20;1.13;;;0.80;;
18711;SDS011;9485;49.386;8.674;2022-10-15T18:54:42;0.97;;;0.90;;
18711;SDS011;9485;49.386;8.674;2022-10-15T19:00:03;0.97;;;0.90;;
18711;SDS011;9485;49.386;8.674;2022-10-15T19:05:25;1.73;;;0.80;;
18711;SDS011;9485;49.386;8.674;2022-10-15T19:10:48;1.20;;;1.10;;
18711;SDS011;9485;49.386;8.674;2022-10-15T19:16:08;1.80;;;1.37;;
18711;SDS011;9485;49.386;8.674;2022-10-15T19:21:36;1.67;;;1.27;;
18711;SDS011;9485;49.386;8.674;2022-10-15T19:26:58;5.30;;;1.30;;
18711;SDS011;9485;49.386;8.674;2022-10-15T19:32:19;1.50;;;1.40;;
18711;SDS011;9485;49.386;8.674;2022-10-15T19:37:40;2.10;;;1.10;;
18711;SDS011;9485;49.386;8.674;2022-10-15T19:43:02;1.40;;;1.07;;
18711;SDS011;9485;49.386;8.674;2022-10-15T19:48:26;3.27;;;1.77;;
18711;SDS011;9485;49.386;8.674;2022-10-15T19:53:49;2.03;;;1.60;;
18711;SDS011;9485;49.386;8.674;2022-10-15T19:59:11;2.27;;;1.20;;
18711;SDS011;9485;49.386;8.674;2022-10-15T20:04:34;1.73;;;1.30;;
18711;SDS011;9485;49.386;8.674;2022-10-15T20:09:55;2.13;;;1.20;;
18711;SDS011;9485;49.386;8.674;2022-10-15T20:15:17;2.83;;;1.20;;
18711;SDS011;9485;49.386;8.674;2022-10-15T20:20:38;1.47;;;1.00;;
18711;SDS011;9485;49.386;8.674;2022-10-15T20:26:03;1.40;;;1.00;;
18711;SDS011;9485;49.386;8.674;2022-10-15T20:31:30;0.80;;;0.80;;
18711;SDS011;9485;49.386;8.674;2022-10-15T20:36:53;0.80;;;0.80;;
18711;SDS011;9485;49.386;8.674;2022-10-15T20:42:14;1.10;;;1.00;;
18711;SDS011;9485;49.386;8.674;2022-10-15T20:47:37;1.23;;;0.87;;
18711;SDS011;9485;49.386;8.674;2022-10-15T20:53:05;1.77;;;1.20;;
18711;SDS011;9485;49.386;8.674;2022-10-15T20:58:26;1.33;;;1.13;;
18711;SDS011;9485;49.386;8.674;2022-10-15T21:03:48;1.27;;;0.97;;
18711;SDS011;9485;49.386;8.674;2022-10-15T21:09:08;1.17;;;1.00;;
18711;SDS011;9485;49.386;8.674;2022-10-15T21:14:29;1.63;;;1.10;;
18711;SDS011;9485;49.386;8.674;2022-10-15T21:19:51;2.00;;;1.00;;
18711;SDS011;9485;49.386;8.674;2022-10-15T21:25:12;1.17;;;1.00;;
18711;SDS011;9485;49.386;8.674;2022-10-15T21:30:37;1.57;;;0.90;;
18711;SDS011;9485;49.386;8.674;2022-10-15T21:36:08;0.83;;;0.80;;
18711;SDS011;9485;49.386;8.674;2022-10-15T21:41:34;1.43;;;1.33;;
18711;SDS011;9485;49.386;8.674;2022-10-15T21:46:57;1.67;;;1.00;;
18711;SDS011;9485;49.386;8.674;2022-10-15T21:52:19;0.90;;;0.80;;
18711;SDS011;9485;49.386;8.674;2022-10-15T21:57:39;1.90;;;1.00;;
18711;SDS011;9485;49.386;8.674;2022-10-15T22:03:02;1.97;;;0.90;;
18711;SDS011;9485;49.386;8.674;2022-10-15T22:08:27;1.53;;;0.97;;
18711;SDS011;9485;49.386;8.674;2022-10-15T22:13:50;1.43;;;1.27;;
18711;SDS011;9485;49.386;8.674;2022-10-15T22:19:13;1.20;;;1.10;;
18711;SDS011;9485;49.386;8.674;2022-10-15T22:24:37;1.10;;;0.80;;
18711;SDS011;9485;49.386;8.674;2022-10-15T22:29:58;1.13;;;0.73;;
18711;SDS011;9485;49.386;8.674;2022-10-15T22:35:19;1.30;;;1.20;;
18711;SDS011;9485;49.386;8.674;2022-10-15T22:40:41;3.50;;;1.20;;
18711;SDS011;9485;49.386;8.674;2022-10-15T22:46:01;0.83;;;0.83;;
18711;SDS011;9485;49.386;8.674;2022-10-15T22:51:23;0.90;;;0.90;;
18711;SDS011;9485;49.386;8.674;2022-10-15T22:56:45;0.80;;;0.80;;
18711;SDS011;9485;49.386;8.674;2022-10-15T23:02:05;1.50;;;0.90;;
18711;SDS011;9485;49.386;8.674;2022-10-15T23:07:26;1.20;;;1.10;;
18711;SDS011;9485;49.386;8.674;2022-10-15T23:12:47;1.10;;;0.90;;
18711;SDS011;9485;49.386;8.674;2022-10-15T23:18:08;1.10;;;1.00;;
18711;SDS011;9485;49.386;8.674;2022-10-15T23:23:29;1.00;;;0.90;;
18711;SDS011;9485;49.386;8.674;2022-10-15T23:28:52;1.10;;;1.00;;
18711;SDS011;9485;49.386;8.674;2022-10-15T23:34:23;2.22;;;1.10;;
18711;SDS011;9485;49.386;8.674;2022-10-15T23:39:45;1.27;;;1.17;;
18711;SDS011;9485;49.386;8.674;2022-10-15T23:45:08;1.30;;;1.20;;
18711;SDS011;9485;49.386;8.674;2022-10-15T23:50:32;0.97;;;0.87;;
18711;SDS011;9485;49.386;8.674;2022-10-15T23:55:53;1.73;;;0.85;;
